Gulf Shores, Alabama
Current Conditions -  °F | °C
As of 7:15 PM on Saturday 22 Nov 2014 (Local Time) from KJKA Reporting Station
Overcast Overcast  
Wind Chill: 60°   Ceiling: 500
Heat Index: 60°   Visibility: 10mi
Dew Point: 59°   Wind: 9mph
Humidity: 96%   Direction: 80°E
Pressure: 30.07"   Gusts: NA
Location:  30.27°N, 87.7°W
Report Text: KJKA 230115Z AUTO 08008KT 10SM OVC005 16/15 A3007 RMK AO2 LTG DSNT SE T01550148
Loading
Personal Weather Stations






























Interactive Weather Map New forecast layout! Learn more

10-Day Weather Forecast

Advertisements
Track Severe Weather on mobile